In Rescue
 
Open Full Screen Window  High Contrast Mode
Wind Gusting 00 knots
03
September 22, 2020 1:13 AM EDT
Weather Information
Wind Direction
  150 °
Wind Speed
  03 kt (3 mph)
Wind Gust
  00 kt (0 mph)
Altimeter
30.31 in
Visibility
10 SM
Temperature
08° C
46° F
Dewpoint
04° C
39° F
Humidity
76%
Sky Condition
Clear
VFR

METAR KAXV 220513Z AUTO 15003KT 10SM CLR 08/04 A3031 RMK AO2

FAA Disclaimer: The data displayed is for advisory purposes only and is not to be used for flight planning or operations.